Terminal Aerodrome Forecast
Issued by NWS

Home | Current Version | Previous Version | Text Only | Print | Product List | Glossary On
Versions: 1 2 3 4 5 6 7 8 9 10 11 12 13 14 15 16 17 18 19 20 21 22 23 24 25 26 27 28 29 30 31 32 33 34 35 36 37 38 39
000
FTAK31 PANC 112331
TAFACD
TAF
PACD 112331Z 1200/1224 29011KT P6SM VCSH SCT015 BKN025 OVC050
      TEMPO 1200/1203 BKN015
     FM120300 28015KT P6SM -RA SCT008 OVC015
     FM120600 25011KT 5SM -RA BR BKN008 OVC015
     FM120900 22011KT 3SM -RA BR OVC008
     FM121800 17010KT P6SM -SHRA SCT008 BKN015 OVC025=

USA.gov is the U.S. government's official web portal to all federal, state and local government web resources and services.